sensor_id;sensor_type;location;lat;lon;timestamp;temperature;humidity
42245;DHT22;27912;51.828;5.688;2023-03-14T00:01:18;12.00;99.90
42245;DHT22;27912;51.828;5.688;2023-03-14T00:03:45;12.00;99.90
42245;DHT22;27912;51.828;5.688;2023-03-14T00:06:12;11.90;99.90
42245;DHT22;27912;51.828;5.688;2023-03-14T00:08:39;11.90;99.90
42245;DHT22;27912;51.828;5.688;2023-03-14T00:11:09;11.80;99.90
42245;DHT22;27912;51.828;5.688;2023-03-14T00:13:35;11.70;99.90
42245;DHT22;27912;51.828;5.688;2023-03-14T00:16:03;11.60;99.90
42245;DHT22;27912;51.828;5.688;2023-03-14T00:18:29;11.60;99.90
42245;DHT22;27912;51.828;5.688;2023-03-14T00:21:01;11.50;99.90
42245;DHT22;27912;51.828;5.688;2023-03-14T00:23:28;11.40;99.90
42245;DHT22;27912;51.828;5.688;2023-03-14T00:26:01;11.30;99.90
42245;DHT22;27912;51.828;5.688;2023-03-14T00:28:28;11.30;99.90
42245;DHT22;27912;51.828;5.688;2023-03-14T00:30:53;11.30;99.90
42245;DHT22;27912;51.828;5.688;2023-03-14T00:33:19;11.30;99.90
42245;DHT22;27912;51.828;5.688;2023-03-14T00:35:55;11.30;99.90
42245;DHT22;27912;51.828;5.688;2023-03-14T00:38:22;11.30;99.90
42245;DHT22;27912;51.828;5.688;2023-03-14T00:40:47;11.30;99.90
42245;DHT22;27912;51.828;5.688;2023-03-14T00:43:13;11.30;99.90
42245;DHT22;27912;51.828;5.688;2023-03-14T00:45:38;11.30;99.90
42245;DHT22;27912;51.828;5.688;2023-03-14T00:48:04;11.30;99.90
42245;DHT22;27912;51.828;5.688;2023-03-14T00:50:30;11.40;99.90
42245;DHT22;27912;51.828;5.688;2023-03-14T00:52:55;11.40;99.90
42245;DHT22;27912;51.828;5.688;2023-03-14T00:55:21;11.40;99.90
42245;DHT22;27912;51.828;5.688;2023-03-14T00:57:46;11.40;99.90
42245;DHT22;27912;51.828;5.688;2023-03-14T01:00:12;11.40;99.90
42245;DHT22;27912;51.828;5.688;2023-03-14T01:02:38;11.40;99.90
42245;DHT22;27912;51.828;5.688;2023-03-14T01:05:04;11.50;99.90
42245;DHT22;27912;51.828;5.688;2023-03-14T01:07:29;11.50;99.90
42245;DHT22;27912;51.828;5.688;2023-03-14T01:09:55;11.50;99.90
42245;DHT22;27912;51.828;5.688;2023-03-14T01:12:20;11.50;99.90
42245;DHT22;27912;51.828;5.688;2023-03-14T01:14:46;11.50;99.90
42245;DHT22;27912;51.828;5.688;2023-03-14T01:17:12;11.40;99.90
42245;DHT22;27912;51.828;5.688;2023-03-14T01:19:37;11.50;99.90
42245;DHT22;27912;51.828;5.688;2023-03-14T01:22:03;11.40;99.90
42245;DHT22;27912;51.828;5.688;2023-03-14T01:24:29;11.40;99.90
42245;DHT22;27912;51.828;5.688;2023-03-14T01:26:55;11.40;99.90
42245;DHT22;27912;51.828;5.688;2023-03-14T01:29:20;11.30;99.90
42245;DHT22;27912;51.828;5.688;2023-03-14T01:31:46;11.30;99.90
42245;DHT22;27912;51.828;5.688;2023-03-14T01:34:11;11.30;99.90
42245;DHT22;27912;51.828;5.688;2023-03-14T01:36:37;11.20;99.90
42245;DHT22;27912;51.828;5.688;2023-03-14T01:39:03;11.20;99.90
42245;DHT22;27912;51.828;5.688;2023-03-14T01:41:28;11.20;99.90
42245;DHT22;27912;51.828;5.688;2023-03-14T01:43:54;11.10;99.90
42245;DHT22;27912;51.828;5.688;2023-03-14T01:46:24;11.20;99.90
42245;DHT22;27912;51.828;5.688;2023-03-14T01:51:33;11.10;99.90
42245;DHT22;27912;51.828;5.688;2023-03-14T01:54:06;11.10;99.90
42245;DHT22;27912;51.828;5.688;2023-03-14T01:56:32;11.20;99.90
42245;DHT22;27912;51.828;5.688;2023-03-14T01:58:59;11.10;99.90
42245;DHT22;27912;51.828;5.688;2023-03-14T02:01:26;11.20;99.90
42245;DHT22;27912;51.828;5.688;2023-03-14T02:03:58;11.10;99.90
42245;DHT22;27912;51.828;5.688;2023-03-14T02:06:32;11.00;99.90
42245;DHT22;27912;51.828;5.688;2023-03-14T02:09:00;10.90;99.90
42245;DHT22;27912;51.828;5.688;2023-03-14T02:11:28;10.80;99.90
42245;DHT22;27912;51.828;5.688;2023-03-14T02:13:56;10.70;99.90
42245;DHT22;27912;51.828;5.688;2023-03-14T02:16:23;10.60;99.90
42245;DHT22;27912;51.828;5.688;2023-03-14T02:18:49;10.50;99.90
42245;DHT22;27912;51.828;5.688;2023-03-14T02:24:19;10.40;99.90
42245;DHT22;27912;51.828;5.688;2023-03-14T02:27:24;10.30;99.90
42245;DHT22;27912;51.828;5.688;2023-03-14T02:30:04;10.30;99.90
42245;DHT22;27912;51.828;5.688;2023-03-14T02:32:32;10.30;99.90
42245;DHT22;27912;51.828;5.688;2023-03-14T02:35:01;10.30;99.90
42245;DHT22;27912;51.828;5.688;2023-03-14T02:37:48;10.20;99.90
42245;DHT22;27912;51.828;5.688;2023-03-14T02:40:14;10.20;99.90
42245;DHT22;27912;51.828;5.688;2023-03-14T02:42:40;10.10;99.90
42245;DHT22;27912;51.828;5.688;2023-03-14T02:47:49;10.00;99.90
42245;DHT22;27912;51.828;5.688;2023-03-14T02:50:20;9.90;99.90
42245;DHT22;27912;51.828;5.688;2023-03-14T02:52:47;9.90;99.90
42245;DHT22;27912;51.828;5.688;2023-03-14T02:55:12;9.90;99.90
42245;DHT22;27912;51.828;5.688;2023-03-14T02:57:38;9.90;99.90
42245;DHT22;27912;51.828;5.688;2023-03-14T03:00:04;9.90;99.90
42245;DHT22;27912;51.828;5.688;2023-03-14T03:02:31;9.90;99.90
42245;DHT22;27912;51.828;5.688;2023-03-14T03:04:57;9.90;99.90
42245;DHT22;27912;51.828;5.688;2023-03-14T03:07:23;9.90;99.90
42245;DHT22;27912;51.828;5.688;2023-03-14T03:09:48;9.90;99.90
42245;DHT22;27912;51.828;5.688;2023-03-14T03:12:14;9.90;99.90
42245;DHT22;27912;51.828;5.688;2023-03-14T03:14:40;9.90;99.90
42245;DHT22;27912;51.828;5.688;2023-03-14T03:17:05;9.90;99.90
42245;DHT22;27912;51.828;5.688;2023-03-14T03:19:32;9.80;99.90
42245;DHT22;27912;51.828;5.688;2023-03-14T03:21:58;9.90;99.90
42245;DHT22;27912;51.828;5.688;2023-03-14T03:24:24;10.00;99.90
42245;DHT22;27912;51.828;5.688;2023-03-14T03:26:51;10.10;99.90
42245;DHT22;27912;51.828;5.688;2023-03-14T03:29:16;10.10;99.90
42245;DHT22;27912;51.828;5.688;2023-03-14T03:31:42;10.10;99.90
42245;DHT22;27912;51.828;5.688;2023-03-14T03:34:08;10.20;99.90
42245;DHT22;27912;51.828;5.688;2023-03-14T03:36:33;10.20;99.90
42245;DHT22;27912;51.828;5.688;2023-03-14T03:38:59;10.20;99.90
42245;DHT22;27912;51.828;5.688;2023-03-14T03:41:25;10.30;99.90
42245;DHT22;27912;51.828;5.688;2023-03-14T03:43:50;10.30;99.90
42245;DHT22;27912;51.828;5.688;2023-03-14T03:46:16;10.30;99.90
42245;DHT22;27912;51.828;5.688;2023-03-14T03:48:41;10.30;99.90
42245;DHT22;27912;51.828;5.688;2023-03-14T03:51:07;10.30;99.90
42245;DHT22;27912;51.828;5.688;2023-03-14T03:53:36;10.40;99.90
42245;DHT22;27912;51.828;5.688;2023-03-14T03:56:01;10.40;99.90
42245;DHT22;27912;51.828;5.688;2023-03-14T03:58:27;10.40;99.90
42245;DHT22;27912;51.828;5.688;2023-03-14T04:00:52;10.40;99.90
42245;DHT22;27912;51.828;5.688;2023-03-14T04:03:19;10.40;99.90
42245;DHT22;27912;51.828;5.688;2023-03-14T04:05:44;10.40;99.90
42245;DHT22;27912;51.828;5.688;2023-03-14T04:08:10;10.40;99.90
42245;DHT22;27912;51.828;5.688;2023-03-14T04:10:36;10.40;99.90
42245;DHT22;27912;51.828;5.688;2023-03-14T04:13:01;10.40;99.90
42245;DHT22;27912;51.828;5.688;2023-03-14T04:15:27;10.40;99.90
42245;DHT22;27912;51.828;5.688;2023-03-14T04:17:57;10.50;99.90
42245;DHT22;27912;51.828;5.688;2023-03-14T04:20:23;10.40;99.90
42245;DHT22;27912;51.828;5.688;2023-03-14T04:22:48;10.50;99.90
42245;DHT22;27912;51.828;5.688;2023-03-14T04:25:14;10.50;99.90
42245;DHT22;27912;51.828;5.688;2023-03-14T04:27:42;10.50;99.90
42245;DHT22;27912;51.828;5.688;2023-03-14T04:30:08;10.50;99.90
42245;DHT22;27912;51.828;5.688;2023-03-14T04:32:34;10.50;99.90
42245;DHT22;27912;51.828;5.688;2023-03-14T04:34:59;10.50;99.90
42245;DHT22;27912;51.828;5.688;2023-03-14T04:37:25;10.50;99.90
42245;DHT22;27912;51.828;5.688;2023-03-14T04:39:50;10.50;99.90
42245;DHT22;27912;51.828;5.688;2023-03-14T04:42:16;10.50;99.90
42245;DHT22;27912;51.828;5.688;2023-03-14T04:44:41;10.50;99.90
42245;DHT22;27912;51.828;5.688;2023-03-14T04:47:08;10.50;99.90
42245;DHT22;27912;51.828;5.688;2023-03-14T04:49:34;10.60;99.90
42245;DHT22;27912;51.828;5.688;2023-03-14T04:51:59;10.50;99.90
42245;DHT22;27912;51.828;5.688;2023-03-14T04:54:25;10.50;99.90
42245;DHT22;27912;51.828;5.688;2023-03-14T04:56:51;10.50;99.90
42245;DHT22;27912;51.828;5.688;2023-03-14T04:59:16;10.50;99.90
42245;DHT22;27912;51.828;5.688;2023-03-14T05:01:42;10.40;99.90
42245;DHT22;27912;51.828;5.688;2023-03-14T05:04:07;10.30;99.90
42245;DHT22;27912;51.828;5.688;2023-03-14T05:06:33;10.30;99.90
42245;DHT22;27912;51.828;5.688;2023-03-14T05:09:00;10.20;99.90
42245;DHT22;27912;51.828;5.688;2023-03-14T05:11:25;10.10;99.90
42245;DHT22;27912;51.828;5.688;2023-03-14T05:13:51;10.10;99.90
42245;DHT22;27912;51.828;5.688;2023-03-14T05:16:17;10.10;99.90
42245;DHT22;27912;51.828;5.688;2023-03-14T05:18:42;10.10;99.90
42245;DHT22;27912;51.828;5.688;2023-03-14T05:21:08;10.10;99.90
42245;DHT22;27912;51.828;5.688;2023-03-14T05:23:33;10.10;99.90
42245;DHT22;27912;51.828;5.688;2023-03-14T05:25:59;10.10;99.90
42245;DHT22;27912;51.828;5.688;2023-03-14T05:28:24;10.10;99.90
42245;DHT22;27912;51.828;5.688;2023-03-14T05:30:50;10.10;99.90
42245;DHT22;27912;51.828;5.688;2023-03-14T05:33:16;10.00;99.90
42245;DHT22;27912;51.828;5.688;2023-03-14T05:35:42;10.00;99.90
42245;DHT22;27912;51.828;5.688;2023-03-14T05:38:08;10.00;99.90
42245;DHT22;27912;51.828;5.688;2023-03-14T05:40:34;10.00;99.90
42245;DHT22;27912;51.828;5.688;2023-03-14T05:42:59;10.00;99.90
42245;DHT22;27912;51.828;5.688;2023-03-14T05:45:25;10.00;99.90
42245;DHT22;27912;51.828;5.688;2023-03-14T05:47:51;10.00;99.90
42245;DHT22;27912;51.828;5.688;2023-03-14T05:50:16;10.00;99.90
42245;DHT22;27912;51.828;5.688;2023-03-14T05:52:42;9.90;99.90
42245;DHT22;27912;51.828;5.688;2023-03-14T05:55:08;9.90;99.90
42245;DHT22;27912;51.828;5.688;2023-03-14T05:57:34;9.90;99.90
42245;DHT22;27912;51.828;5.688;2023-03-14T05:59:59;9.90;99.90
42245;DHT22;27912;51.828;5.688;2023-03-14T06:02:25;9.90;99.90
42245;DHT22;27912;51.828;5.688;2023-03-14T06:04:51;9.90;99.90
42245;DHT22;27912;51.828;5.688;2023-03-14T06:07:16;9.90;99.90
42245;DHT22;27912;51.828;5.688;2023-03-14T06:09:42;9.90;99.90
42245;DHT22;27912;51.828;5.688;2023-03-14T06:12:07;9.90;99.90
42245;DHT22;27912;51.828;5.688;2023-03-14T06:14:33;9.90;99.90
42245;DHT22;27912;51.828;5.688;2023-03-14T06:16:58;9.90;99.90
42245;DHT22;27912;51.828;5.688;2023-03-14T06:19:25;10.00;99.90
42245;DHT22;27912;51.828;5.688;2023-03-14T06:21:51;9.90;99.90
42245;DHT22;27912;51.828;5.688;2023-03-14T06:24:17;10.00;99.90
42245;DHT22;27912;51.828;5.688;2023-03-14T06:26:42;10.00;99.90
42245;DHT22;27912;51.828;5.688;2023-03-14T06:29:08;10.00;99.90
42245;DHT22;27912;51.828;5.688;2023-03-14T06:31:34;10.00;99.90
42245;DHT22;27912;51.828;5.688;2023-03-14T06:34:00;10.00;99.90
42245;DHT22;27912;51.828;5.688;2023-03-14T06:36:26;10.00;99.90
42245;DHT22;27912;51.828;5.688;2023-03-14T06:38:51;10.00;99.90
42245;DHT22;27912;51.828;5.688;2023-03-14T06:41:17;10.00;99.90
42245;DHT22;27912;51.828;5.688;2023-03-14T06:43:43;10.00;99.90
42245;DHT22;27912;51.828;5.688;2023-03-14T06:46:09;10.00;99.90
42245;DHT22;27912;51.828;5.688;2023-03-14T06:48:34;10.00;99.90
42245;DHT22;27912;51.828;5.688;2023-03-14T06:51:00;10.00;99.90
42245;DHT22;27912;51.828;5.688;2023-03-14T06:53:26;10.00;99.90
42245;DHT22;27912;51.828;5.688;2023-03-14T06:55:51;10.00;99.90
42245;DHT22;27912;51.828;5.688;2023-03-14T06:58:17;10.10;99.90
42245;DHT22;27912;51.828;5.688;2023-03-14T07:00:42;10.10;99.90
42245;DHT22;27912;51.828;5.688;2023-03-14T07:03:10;10.10;99.90
42245;DHT22;27912;51.828;5.688;2023-03-14T07:05:35;10.20;99.90
42245;DHT22;27912;51.828;5.688;2023-03-14T07:08:01;10.20;99.90
42245;DHT22;27912;51.828;5.688;2023-03-14T07:10:26;10.20;99.90
42245;DHT22;27912;51.828;5.688;2023-03-14T07:12:52;10.20;99.90
42245;DHT22;27912;51.828;5.688;2023-03-14T07:15:19;10.20;99.90
42245;DHT22;27912;51.828;5.688;2023-03-14T07:17:45;10.20;99.90
42245;DHT22;27912;51.828;5.688;2023-03-14T07:20:11;10.20;99.90
42245;DHT22;27912;51.828;5.688;2023-03-14T07:22:36;10.20;99.90
42245;DHT22;27912;51.828;5.688;2023-03-14T07:25:02;9.90;99.90
42245;DHT22;27912;51.828;5.688;2023-03-14T07:27:27;9.20;99.90
42245;DHT22;27912;51.828;5.688;2023-03-14T07:29:53;8.80;99.90
42245;DHT22;27912;51.828;5.688;2023-03-14T07:32:18;8.40;99.90
42245;DHT22;27912;51.828;5.688;2023-03-14T07:34:44;8.20;99.90
42245;DHT22;27912;51.828;5.688;2023-03-14T07:37:10;8.00;99.90
42245;DHT22;27912;51.828;5.688;2023-03-14T07:39:35;7.80;99.90
42245;DHT22;27912;51.828;5.688;2023-03-14T07:42:01;7.70;99.90
42245;DHT22;27912;51.828;5.688;2023-03-14T07:44:27;7.60;99.90
42245;DHT22;27912;51.828;5.688;2023-03-14T07:46:52;7.60;99.90
42245;DHT22;27912;51.828;5.688;2023-03-14T07:49:18;7.60;99.90
42245;DHT22;27912;51.828;5.688;2023-03-14T07:51:46;7.50;99.90
42245;DHT22;27912;51.828;5.688;2023-03-14T07:54:12;7.50;99.90
42245;DHT22;27912;51.828;5.688;2023-03-14T07:56:38;7.50;99.90
42245;DHT22;27912;51.828;5.688;2023-03-14T07:59:03;7.40;99.90
42245;DHT22;27912;51.828;5.688;2023-03-14T08:01:29;7.40;99.90
42245;DHT22;27912;51.828;5.688;2023-03-14T08:03:54;7.40;99.90
42245;DHT22;27912;51.828;5.688;2023-03-14T08:06:20;7.40;99.90
42245;DHT22;27912;51.828;5.688;2023-03-14T08:08:46;7.40;99.90
42245;DHT22;27912;51.828;5.688;2023-03-14T08:11:11;7.40;99.90
42245;DHT22;27912;51.828;5.688;2023-03-14T08:13:37;7.40;99.90
42245;DHT22;27912;51.828;5.688;2023-03-14T08:16:03;7.40;99.90
42245;DHT22;27912;51.828;5.688;2023-03-14T08:18:29;7.50;99.90
42245;DHT22;27912;51.828;5.688;2023-03-14T08:20:55;7.50;99.90
42245;DHT22;27912;51.828;5.688;2023-03-14T08:23:20;7.50;99.90
42245;DHT22;27912;51.828;5.688;2023-03-14T08:25:49;7.50;99.90
42245;DHT22;27912;51.828;5.688;2023-03-14T08:28:15;7.50;99.90
42245;DHT22;27912;51.828;5.688;2023-03-14T08:30:40;7.50;99.90
42245;DHT22;27912;51.828;5.688;2023-03-14T08:33:06;7.50;99.90
42245;DHT22;27912;51.828;5.688;2023-03-14T08:35:32;7.60;99.90
42245;DHT22;27912;51.828;5.688;2023-03-14T08:37:57;7.60;99.90
42245;DHT22;27912;51.828;5.688;2023-03-14T08:40:23;7.60;99.90
42245;DHT22;27912;51.828;5.688;2023-03-14T08:42:48;7.70;99.90
42245;DHT22;27912;51.828;5.688;2023-03-14T08:45:15;7.70;99.90
42245;DHT22;27912;51.828;5.688;2023-03-14T08:47:44;7.60;99.90
42245;DHT22;27912;51.828;5.688;2023-03-14T08:50:11;7.60;99.90
42245;DHT22;27912;51.828;5.688;2023-03-14T08:52:36;7.50;99.90
42245;DHT22;27912;51.828;5.688;2023-03-14T08:55:09;7.50;99.90
42245;DHT22;27912;51.828;5.688;2023-03-14T08:57:35;7.40;99.90
42245;DHT22;27912;51.828;5.688;2023-03-14T09:00:03;7.20;99.90
42245;DHT22;27912;51.828;5.688;2023-03-14T09:02:30;6.90;99.90
42245;DHT22;27912;51.828;5.688;2023-03-14T09:04:56;6.70;99.90
42245;DHT22;27912;51.828;5.688;2023-03-14T09:07:22;6.60;99.90
42245;DHT22;27912;51.828;5.688;2023-03-14T09:09:47;6.40;99.90
42245;DHT22;27912;51.828;5.688;2023-03-14T09:12:13;6.30;99.90
42245;DHT22;27912;51.828;5.688;2023-03-14T09:14:39;6.20;99.90
42245;DHT22;27912;51.828;5.688;2023-03-14T09:17:04;6.10;99.90
42245;DHT22;27912;51.828;5.688;2023-03-14T09:19:30;6.10;99.90
42245;DHT22;27912;51.828;5.688;2023-03-14T09:21:56;6.10;99.90
42245;DHT22;27912;51.828;5.688;2023-03-14T09:24:21;6.10;99.90
42245;DHT22;27912;51.828;5.688;2023-03-14T09:26:47;6.10;99.90
42245;DHT22;27912;51.828;5.688;2023-03-14T09:29:12;6.10;99.90
42245;DHT22;27912;51.828;5.688;2023-03-14T09:31:38;6.20;99.90
42245;DHT22;27912;51.828;5.688;2023-03-14T09:34:04;6.20;99.90
42245;DHT22;27912;51.828;5.688;2023-03-14T09:36:29;6.30;99.90
42245;DHT22;27912;51.828;5.688;2023-03-14T09:38:55;6.40;99.90
42245;DHT22;27912;51.828;5.688;2023-03-14T09:41:27;6.50;99.90
42245;DHT22;27912;51.828;5.688;2023-03-14T09:46:34;6.70;99.90
42245;DHT22;27912;51.828;5.688;2023-03-14T09:49:00;6.80;99.90
42245;DHT22;27912;51.828;5.688;2023-03-14T09:51:27;6.90;99.90
42245;DHT22;27912;51.828;5.688;2023-03-14T09:53:53;6.90;99.90
42245;DHT22;27912;51.828;5.688;2023-03-14T09:56:21;6.90;99.90
42245;DHT22;27912;51.828;5.688;2023-03-14T09:58:54;6.80;99.90
42245;DHT22;27912;51.828;5.688;2023-03-14T10:01:25;6.80;99.90
42245;DHT22;27912;51.828;5.688;2023-03-14T10:03:54;6.80;99.90
42245;DHT22;27912;51.828;5.688;2023-03-14T10:06:27;6.80;99.90
42245;DHT22;27912;51.828;5.688;2023-03-14T10:08:54;6.80;99.90
42245;DHT22;27912;51.828;5.688;2023-03-14T10:11:21;6.80;99.90
42245;DHT22;27912;51.828;5.688;2023-03-14T10:14:11;6.70;99.90
42245;DHT22;27912;51.828;5.688;2023-03-14T10:16:42;6.80;99.90
42245;DHT22;27912;51.828;5.688;2023-03-14T10:19:14;6.80;99.90
42245;DHT22;27912;51.828;5.688;2023-03-14T10:21:50;6.80;99.90
42245;DHT22;27912;51.828;5.688;2023-03-14T10:24:27;6.90;99.90
42245;DHT22;27912;51.828;5.688;2023-03-14T10:27:02;7.00;99.90
42245;DHT22;27912;51.828;5.688;2023-03-14T10:29:32;7.00;99.90
42245;DHT22;27912;51.828;5.688;2023-03-14T10:32:02;7.10;99.90
42245;DHT22;27912;51.828;5.688;2023-03-14T10:34:33;7.20;99.90
42245;DHT22;27912;51.828;5.688;2023-03-14T10:37:20;7.30;99.90
42245;DHT22;27912;51.828;5.688;2023-03-14T10:40:00;7.40;99.90
42245;DHT22;27912;51.828;5.688;2023-03-14T10:42:33;7.50;99.90
42245;DHT22;27912;51.828;5.688;2023-03-14T10:45:31;7.60;99.90
42245;DHT22;27912;51.828;5.688;2023-03-14T10:47:59;7.60;99.90
42245;DHT22;27912;51.828;5.688;2023-03-14T10:50:31;7.60;99.90
42245;DHT22;27912;51.828;5.688;2023-03-14T10:52:57;7.70;99.90
42245;DHT22;27912;51.828;5.688;2023-03-14T10:55:43;7.70;99.90
42245;DHT22;27912;51.828;5.688;2023-03-14T10:58:27;7.80;99.90
42245;DHT22;27912;51.828;5.688;2023-03-14T11:01:24;7.90;99.90
42245;DHT22;27912;51.828;5.688;2023-03-14T11:04:00;7.90;99.90
42245;DHT22;27912;51.828;5.688;2023-03-14T11:09:23;7.50;99.90
42245;DHT22;27912;51.828;5.688;2023-03-14T11:11:51;6.70;99.90
42245;DHT22;27912;51.828;5.688;2023-03-14T11:17:00;5.80;99.90
42245;DHT22;27912;51.828;5.688;2023-03-14T11:20:02;5.70;99.90
42245;DHT22;27912;51.828;5.688;2023-03-14T11:22:55;5.80;99.90
42245;DHT22;27912;51.828;5.688;2023-03-14T11:25:56;6.00;99.90
42245;DHT22;27912;51.828;5.688;2023-03-14T11:33:56;6.50;99.90
42245;DHT22;27912;51.828;5.688;2023-03-14T11:36:39;6.60;99.90
42245;DHT22;27912;51.828;5.688;2023-03-14T11:39:14;6.70;99.90
42245;DHT22;27912;51.828;5.688;2023-03-14T11:41:51;6.60;99.90
42245;DHT22;27912;51.828;5.688;2023-03-14T11:46:59;6.40;99.90
42245;DHT22;27912;51.828;5.688;2023-03-14T11:49:40;6.20;99.90
42245;DHT22;27912;51.828;5.688;2023-03-14T11:52:32;6.20;99.90
42245;DHT22;27912;51.828;5.688;2023-03-14T11:55:11;6.20;99.90
42245;DHT22;27912;51.828;5.688;2023-03-14T11:57:39;6.50;99.90
42245;DHT22;27912;51.828;5.688;2023-03-14T12:00:23;6.70;99.90
42245;DHT22;27912;51.828;5.688;2023-03-14T12:09:02;6.90;99.90
42245;DHT22;27912;51.828;5.688;2023-03-14T12:11:52;6.90;99.90
42245;DHT22;27912;51.828;5.688;2023-03-14T12:14:27;7.00;99.90
42245;DHT22;27912;51.828;5.688;2023-03-14T12:16:56;7.20;99.90
42245;DHT22;27912;51.828;5.688;2023-03-14T12:21:52;7.50;99.90
42245;DHT22;27912;51.828;5.688;2023-03-14T12:24:21;7.70;99.90
42245;DHT22;27912;51.828;5.688;2023-03-14T12:26:57;7.80;99.90
42245;DHT22;27912;51.828;5.688;2023-03-14T12:29:23;7.90;99.90
42245;DHT22;27912;51.828;5.688;2023-03-14T12:32:09;7.90;99.90
42245;DHT22;27912;51.828;5.688;2023-03-14T12:34:40;8.00;99.90
42245;DHT22;27912;51.828;5.688;2023-03-14T12:40:19;8.20;99.90
42245;DHT22;27912;51.828;5.688;2023-03-14T12:42:41;7.90;99.90
42245;DHT22;27912;51.828;5.688;2023-03-14T12:47:56;7.80;99.90
42245;DHT22;27912;51.828;5.688;2023-03-14T12:53:31;7.90;99.90
42245;DHT22;27912;51.828;5.688;2023-03-14T12:59:31;8.00;99.90
42245;DHT22;27912;51.828;5.688;2023-03-14T13:07:28;8.40;99.90
42245;DHT22;27912;51.828;5.688;2023-03-14T13:12:38;8.40;98.60
42245;DHT22;27912;51.828;5.688;2023-03-14T13:17:48;8.50;96.90
42245;DHT22;27912;51.828;5.688;2023-03-14T13:20:28;8.50;97.00
42245;DHT22;27912;51.828;5.688;2023-03-14T13:22:54;8.50;96.50
42245;DHT22;27912;51.828;5.688;2023-03-14T13:25:20;8.50;96.60
42245;DHT22;27912;51.828;5.688;2023-03-14T13:27:47;8.50;94.50
42245;DHT22;27912;51.828;5.688;2023-03-14T13:32:44;8.40;93.10
42245;DHT22;27912;51.828;5.688;2023-03-14T13:35:29;8.50;92.40
42245;DHT22;27912;51.828;5.688;2023-03-14T13:38:03;8.50;91.10
42245;DHT22;27912;51.828;5.688;2023-03-14T13:40:33;8.40;90.00
42245;DHT22;27912;51.828;5.688;2023-03-14T13:43:21;8.40;91.80
42245;DHT22;27912;51.828;5.688;2023-03-14T13:48:29;8.60;91.80
42245;DHT22;27912;51.828;5.688;2023-03-14T13:50:59;8.70;90.90
42245;DHT22;27912;51.828;5.688;2023-03-14T13:53:26;8.80;88.70
42245;DHT22;27912;51.828;5.688;2023-03-14T13:55:52;8.80;86.80
42245;DHT22;27912;51.828;5.688;2023-03-14T13:58:27;8.70;87.70
42245;DHT22;27912;51.828;5.688;2023-03-14T14:03:24;8.50;83.20
42245;DHT22;27912;51.828;5.688;2023-03-14T14:05:49;8.40;85.10
42245;DHT22;27912;51.828;5.688;2023-03-14T14:08:15;8.30;83.70
42245;DHT22;27912;51.828;5.688;2023-03-14T14:10:41;8.30;85.50
42245;DHT22;27912;51.828;5.688;2023-03-14T14:13:10;8.30;85.70
42245;DHT22;27912;51.828;5.688;2023-03-14T14:15:44;8.20;84.30
42245;DHT22;27912;51.828;5.688;2023-03-14T14:18:15;8.10;83.40
42245;DHT22;27912;51.828;5.688;2023-03-14T14:20:44;8.10;82.70
42245;DHT22;27912;51.828;5.688;2023-03-14T14:23:12;8.20;81.00
42245;DHT22;27912;51.828;5.688;2023-03-14T14:25:39;8.20;79.60
42245;DHT22;27912;51.828;5.688;2023-03-14T14:28:35;8.20;79.60
42245;DHT22;27912;51.828;5.688;2023-03-14T14:31:22;8.30;80.60
42245;DHT22;27912;51.828;5.688;2023-03-14T14:34:02;8.30;80.50
42245;DHT22;27912;51.828;5.688;2023-03-14T14:36:39;8.30;80.90
42245;DHT22;27912;51.828;5.688;2023-03-14T14:41:49;7.90;80.40
42245;DHT22;27912;51.828;5.688;2023-03-14T14:44:18;7.80;80.70
42245;DHT22;27912;51.828;5.688;2023-03-14T14:46:46;7.80;79.90
42245;DHT22;27912;51.828;5.688;2023-03-14T14:49:18;7.70;79.90
42245;DHT22;27912;51.828;5.688;2023-03-14T14:51:48;7.70;81.00
42245;DHT22;27912;51.828;5.688;2023-03-14T14:54:20;7.80;80.50
42245;DHT22;27912;51.828;5.688;2023-03-14T14:57:03;7.80;81.80
42245;DHT22;27912;51.828;5.688;2023-03-14T14:59:29;8.00;82.80
42245;DHT22;27912;51.828;5.688;2023-03-14T15:02:02;8.00;83.10
42245;DHT22;27912;51.828;5.688;2023-03-14T15:04:31;8.10;82.80
42245;DHT22;27912;51.828;5.688;2023-03-14T15:06:56;8.20;83.30
42245;DHT22;27912;51.828;5.688;2023-03-14T15:09:22;8.30;84.20
42245;DHT22;27912;51.828;5.688;2023-03-14T15:11:51;8.20;84.70
42245;DHT22;27912;51.828;5.688;2023-03-14T15:14:16;8.20;85.50
42245;DHT22;27912;51.828;5.688;2023-03-14T15:16:42;8.10;84.90
42245;DHT22;27912;51.828;5.688;2023-03-14T15:19:21;8.00;85.70
42245;DHT22;27912;51.828;5.688;2023-03-14T15:21:48;8.00;87.20
42245;DHT22;27912;51.828;5.688;2023-03-14T15:24:14;7.90;85.60
42245;DHT22;27912;51.828;5.688;2023-03-14T15:26:39;7.80;84.20
42245;DHT22;27912;51.828;5.688;2023-03-14T15:29:05;7.80;84.50
42245;DHT22;27912;51.828;5.688;2023-03-14T15:31:34;7.70;85.20
42245;DHT22;27912;51.828;5.688;2023-03-14T15:34:00;7.70;85.40
42245;DHT22;27912;51.828;5.688;2023-03-14T15:36:28;7.70;84.10
42245;DHT22;27912;51.828;5.688;2023-03-14T15:38:55;7.60;82.60
42245;DHT22;27912;51.828;5.688;2023-03-14T15:41:21;7.50;82.10
42245;DHT22;27912;51.828;5.688;2023-03-14T15:43:47;7.60;82.70
42245;DHT22;27912;51.828;5.688;2023-03-14T15:46:14;7.50;81.70
42245;DHT22;27912;51.828;5.688;2023-03-14T15:48:40;7.40;79.10
42245;DHT22;27912;51.828;5.688;2023-03-14T15:51:06;7.40;79.60
42245;DHT22;27912;51.828;5.688;2023-03-14T15:53:32;7.20;79.60
42245;DHT22;27912;51.828;5.688;2023-03-14T15:55:59;7.20;79.40
42245;DHT22;27912;51.828;5.688;2023-03-14T15:58:24;7.10;80.00
42245;DHT22;27912;51.828;5.688;2023-03-14T16:00:50;7.00;80.80
42245;DHT22;27912;51.828;5.688;2023-03-14T16:03:16;7.00;81.00
42245;DHT22;27912;51.828;5.688;2023-03-14T16:05:42;6.90;81.90
42245;DHT22;27912;51.828;5.688;2023-03-14T16:08:07;6.80;82.20
42245;DHT22;27912;51.828;5.688;2023-03-14T16:10:33;6.80;82.90
42245;DHT22;27912;51.828;5.688;2023-03-14T16:12:59;6.80;83.90
42245;DHT22;27912;51.828;5.688;2023-03-14T16:15:25;6.70;84.20
42245;DHT22;27912;51.828;5.688;2023-03-14T16:17:55;6.70;84.40
42245;DHT22;27912;51.828;5.688;2023-03-14T16:20:22;6.70;83.20
42245;DHT22;27912;51.828;5.688;2023-03-14T16:22:48;6.60;84.30
42245;DHT22;27912;51.828;5.688;2023-03-14T16:25:14;6.60;83.80
42245;DHT22;27912;51.828;5.688;2023-03-14T16:27:40;6.50;84.20
42245;DHT22;27912;51.828;5.688;2023-03-14T16:30:07;6.50;84.70
42245;DHT22;27912;51.828;5.688;2023-03-14T16:32:33;6.50;84.80
42245;DHT22;27912;51.828;5.688;2023-03-14T16:34:59;6.50;85.50
42245;DHT22;27912;51.828;5.688;2023-03-14T16:37:24;6.40;86.00
42245;DHT22;27912;51.828;5.688;2023-03-14T16:39:51;6.40;86.80
42245;DHT22;27912;51.828;5.688;2023-03-14T16:42:17;6.40;86.50
42245;DHT22;27912;51.828;5.688;2023-03-14T16:44:44;6.30;87.10
42245;DHT22;27912;51.828;5.688;2023-03-14T16:47:10;6.30;88.00
42245;DHT22;27912;51.828;5.688;2023-03-14T16:49:35;6.30;88.70
42245;DHT22;27912;51.828;5.688;2023-03-14T16:52:01;6.30;89.00
42245;DHT22;27912;51.828;5.688;2023-03-14T16:54:27;6.30;89.30